Time;durP1;ratioP1;P1;durP2;ratioP2;P2;SDS_P1;SDS_P2;PMS_P1;PMS_P2;Temp;Humidity;BMP_temperature;BMP_pressure;BME280_temperature;BME280_humidity;BME280_pressure;Samples;Min_cycle;Max_cycle;Signal;HPM_P1;HPM_P2
2022/04/18 00:00:35;;;;;;;2.70;2.47;;;;;;;;;;5102311;28;20246;-68
2022/04/18 00:03:03;;;;;;;2.53;2.33;;;;;;;;;;5102309;28;20200;-68
2022/04/18 00:05:30;;;;;;;2.53;2.33;;;;;;;;;;5102169;28;20243;-68
2022/04/18 00:07:57;;;;;;;2.15;2.05;;;;;;;;;;5101978;28;20200;-68
2022/04/18 00:10:24;;;;;;;2.25;2.15;;;;;;;;;;5102234;28;20257;-68
2022/04/18 00:12:50;;;;;;;3.58;2.30;;;;;;;;;;5101938;28;20196;-68
2022/04/18 00:15:16;;;;;;;2.05;1.95;;;;;;;;;;5101933;28;20208;-68
2022/04/18 00:17:43;;;;;;;2.00;1.90;;;;;;;;;;5101721;28;20234;-68
2022/04/18 00:20:10;;;;;;;2.08;2.08;;;;;;;;;;5104650;28;20242;-68
2022/04/18 00:22:36;;;;;;;2.05;1.95;;;;;;;;;;5105844;28;20196;-68
2022/04/18 00:25:04;;;;;;;2.40;2.30;;;;;;;;;;5105758;28;20235;-68
2022/04/18 00:27:31;;;;;;;1.90;1.80;;;;;;;;;;5105335;28;20200;-68
2022/04/18 00:29:57;;;;;;;2.45;2.00;;;;;;;;;;5106077;28;20244;-68
2022/04/18 00:32:23;;;;;;;1.70;1.70;;;;;;;;;;5105690;28;20421;-68
2022/04/18 00:34:49;;;;;;;2.47;2.25;;;;;;;;;;5105573;28;20196;-68
2022/04/18 00:37:15;;;;;;;2.10;2.10;;;;;;;;;;5105262;28;20241;-68
2022/04/18 00:39:42;;;;;;;2.13;2.10;;;;;;;;;;5105308;28;20215;-68
2022/04/18 00:42:09;;;;;;;2.20;2.10;;;;;;;;;;5105216;28;20196;-68
2022/04/18 00:44:36;;;;;;;2.67;2.47;;;;;;;;;;5105526;28;20233;-68
2022/04/18 00:47:02;;;;;;;2.53;2.28;;;;;;;;;;5105139;28;20507;-68
2022/04/18 00:49:28;;;;;;;2.75;2.55;;;;;;;;;;5105324;28;20191;-68
2022/04/18 00:51:55;;;;;;;2.35;2.25;;;;;;;;;;5105165;28;20249;-68
2022/04/18 00:54:22;;;;;;;2.00;1.90;;;;;;;;;;5105134;28;20204;-68
2022/04/18 00:56:48;;;;;;;2.30;2.20;;;;;;;;;;5104686;28;20257;-68
2022/04/18 00:59:16;;;;;;;2.20;2.10;;;;;;;;;;5105046;28;20414;-68
2022/04/18 01:01:42;;;;;;;2.90;2.33;;;;;;;;;;5104909;28;20486;-68
2022/04/18 01:04:08;;;;;;;2.55;2.45;;;;;;;;;;5104912;28;20195;-68
2022/04/18 01:06:34;;;;;;;2.80;2.70;;;;;;;;;;5104602;28;20219;-68
2022/04/18 01:09:02;;;;;;;2.55;2.45;;;;;;;;;;5104931;28;20202;-68
2022/04/18 01:11:28;;;;;;;2.20;2.10;;;;;;;;;;5104721;28;20203;-68
2022/04/18 01:13:54;;;;;;;2.42;2.20;;;;;;;;;;5104696;28;20204;-68
2022/04/18 01:16:22;;;;;;;2.55;2.35;;;;;;;;;;5104742;28;20195;-68
2022/04/18 01:18:49;;;;;;;2.17;2.08;;;;;;;;;;5104639;28;20196;-68
2022/04/18 01:21:17;;;;;;;2.67;2.50;;;;;;;;;;5104563;28;20585;-68
2022/04/18 01:23:43;;;;;;;2.55;2.45;;;;;;;;;;5104353;28;20241;-68
2022/04/18 01:28:59;;;;;;;2.97;2.80;;;;;;;;;;5104573;28;20194;-68
2022/04/18 01:31:25;;;;;;;2.90;2.75;;;;;;;;;;5103367;28;20402;-68
2022/04/18 01:33:52;;;;;;;3.38;3.08;;;;;;;;;;5104649;28;20499;-68
2022/04/18 01:36:19;;;;;;;5.60;3.25;;;;;;;;;;5104406;28;20257;-68
2022/04/18 01:38:46;;;;;;;3.08;2.85;;;;;;;;;;5104373;28;20267;-68
2022/04/18 01:41:12;;;;;;;3.30;3.00;;;;;;;;;;5104230;28;20242;-68
2022/04/18 01:43:38;;;;;;;3.30;3.10;;;;;;;;;;5104334;28;20203;-68
2022/04/18 01:46:04;;;;;;;3.00;2.90;;;;;;;;;;5103890;28;20245;-68
2022/04/18 01:48:31;;;;;;;3.45;3.10;;;;;;;;;;5104233;28;20241;-68
2022/04/18 01:50:57;;;;;;;3.83;3.20;;;;;;;;;;5104162;28;20230;-68
2022/04/18 01:53:25;;;;;;;3.03;2.83;;;;;;;;;;5104623;28;20204;-68
2022/04/18 01:55:52;;;;;;;3.33;3.03;;;;;;;;;;5103958;28;20223;-68
2022/04/18 01:58:18;;;;;;;3.00;2.80;;;;;;;;;;5103686;28;20195;-68
2022/04/18 02:00:45;;;;;;;3.20;3.08;;;;;;;;;;5103735;28;20261;-68
2022/04/18 02:03:11;;;;;;;3.10;2.90;;;;;;;;;;5103828;28;20210;-68
2022/04/18 02:05:39;;;;;;;3.15;2.85;;;;;;;;;;5103901;28;20215;-68
2022/04/18 02:08:06;;;;;;;3.25;3.05;;;;;;;;;;5103493;28;20192;-68
2022/04/18 02:10:34;;;;;;;4.50;3.75;;;;;;;;;;5103527;28;20195;-68
2022/04/18 02:13:00;;;;;;;3.17;2.97;;;;;;;;;;5103611;28;20196;-68
2022/04/18 02:15:26;;;;;;;2.95;2.85;;;;;;;;;;5103623;28;20199;-68
2022/04/18 02:17:52;;;;;;;3.00;2.80;;;;;;;;;;5103421;28;20499;-68
2022/04/18 02:20:19;;;;;;;3.05;2.80;;;;;;;;;;5103514;28;20215;-68
2022/04/18 02:22:45;;;;;;;3.00;2.90;;;;;;;;;;5103433;28;20233;-68
2022/04/18 02:25:11;;;;;;;3.10;3.00;;;;;;;;;;5103417;28;20200;-68
2022/04/18 02:27:39;;;;;;;4.65;3.15;;;;;;;;;;5102944;28;20241;-68
2022/04/18 02:30:06;;;;;;;3.45;2.97;;;;;;;;;;5103514;28;20207;-68
2022/04/18 02:32:50;;;;;;;3.10;2.88;;;;;;;;;;5103404;28;20233;-68
2022/04/18 02:35:16;;;;;;;2.60;2.60;;;;;;;;;;5103395;28;20359;-68
2022/04/18 02:37:43;;;;;;;3.10;3.00;;;;;;;;;;5103043;28;20233;-68
2022/04/18 02:40:10;;;;;;;3.25;3.00;;;;;;;;;;5102911;28;20388;-68
2022/04/18 02:42:36;;;;;;;3.33;3.10;;;;;;;;;;5102367;28;20199;-68
2022/04/18 02:45:04;;;;;;;2.58;2.47;;;;;;;;;;5103249;28;20240;-68
2022/04/18 02:47:30;;;;;;;3.65;3.40;;;;;;;;;;5102702;28;20309;-68
2022/04/18 02:49:56;;;;;;;3.25;3.05;;;;;;;;;;5103026;28;20196;-68
2022/04/18 02:52:22;;;;;;;2.70;2.58;;;;;;;;;;5102924;28;20196;-68
2022/04/18 02:54:49;;;;;;;3.22;3.03;;;;;;;;;;5102847;28;20241;-68
2022/04/18 02:57:15;;;;;;;3.03;2.92;;;;;;;;;;5102760;28;20196;-68
2022/04/18 02:59:41;;;;;;;3.20;2.85;;;;;;;;;;5102682;28;20227;-68
2022/04/18 03:02:09;;;;;;;2.80;2.70;;;;;;;;;;5102702;28;20511;-67
2022/04/18 03:04:35;;;;;;;4.20;3.30;;;;;;;;;;5102676;28;20202;-68
2022/04/18 03:07:01;;;;;;;3.40;3.10;;;;;;;;;;5102429;28;20424;-68
2022/04/18 03:09:28;;;;;;;3.38;3.17;;;;;;;;;;5102662;28;20239;-68
2022/04/18 03:11:55;;;;;;;3.13;2.92;;;;;;;;;;5102874;28;20203;-68
2022/04/18 03:14:21;;;;;;;3.50;3.25;;;;;;;;;;5102785;28;20249;-68
2022/04/18 03:16:48;;;;;;;3.08;2.97;;;;;;;;;;5102548;28;20257;-68
2022/04/18 03:19:15;;;;;;;3.40;3.20;;;;;;;;;;5102617;28;20230;-68
2022/04/18 03:21:41;;;;;;;3.25;3.05;;;;;;;;;;5102309;28;20257;-68
2022/04/18 03:24:08;;;;;;;4.28;3.88;;;;;;;;;;5102690;28;20199;-68
2022/04/18 03:26:35;;;;;;;3.40;3.20;;;;;;;;;;5102412;28;20440;-68
2022/04/18 03:29:01;;;;;;;3.33;3.13;;;;;;;;;;5102527;28;20203;-68
2022/04/18 03:31:27;;;;;;;3.97;3.30;;;;;;;;;;5102634;28;20199;-68
2022/04/18 03:33:53;;;;;;;3.28;3.17;;;;;;;;;;5102882;28;20195;-67
2022/04/18 03:41:49;;;;;;;3.50;3.30;;;;;;;;;;5102375;28;20222;-68
2022/04/18 03:44:15;;;;;;;3.42;3.22;;;;;;;;;;5102469;28;20195;-68
2022/04/18 03:46:41;;;;;;;3.45;3.25;;;;;;;;;;5102053;28;20196;-68
2022/04/18 03:49:07;;;;;;;5.47;3.30;;;;;;;;;;5102223;28;20249;-68
2022/04/18 03:51:36;;;;;;;3.50;3.20;;;;;;;;;;5102377;28;20196;-68
2022/04/18 03:54:02;;;;;;;4.05;3.13;;;;;;;;;;5103321;28;20362;-68
2022/04/18 03:56:28;;;;;;;3.97;3.58;;;;;;;;;;5106063;28;20199;-68
2022/04/18 03:58:54;;;;;;;3.20;3.10;;;;;;;;;;5106152;28;20229;-68
2022/04/18 04:01:20;;;;;;;3.33;3.00;;;;;;;;;;5105901;28;20265;-68
2022/04/18 04:03:47;;;;;;;3.67;3.47;;;;;;;;;;5106370;28;20241;-68
2022/04/18 04:06:13;;;;;;;3.03;2.83;;;;;;;;;;5105826;28;20261;-68
2022/04/18 04:08:40;;;;;;;3.28;3.08;;;;;;;;;;5106436;28;20248;-67
2022/04/18 04:11:07;;;;;;;3.22;3.03;;;;;;;;;;5105984;28;20196;-68
2022/04/18 04:13:33;;;;;;;4.60;3.08;;;;;;;;;;5105872;28;20534;-68
2022/04/18 04:15:59;;;;;;;3.65;3.35;;;;;;;;;;5105101;28;20775;-66
2022/04/18 04:18:26;;;;;;;3.47;3.28;;;;;;;;;;5105850;28;20499;-66
2022/04/18 04:20:52;;;;;;;4.13;3.53;;;;;;;;;;5105770;28;20557;-66
2022/04/18 04:23:18;;;;;;;3.97;3.40;;;;;;;;;;5105675;28;20308;-67
2022/04/18 04:25:46;;;;;;;3.88;3.58;;;;;;;;;;5105625;28;20199;-66
2022/04/18 04:28:12;;;;;;;4.82;3.63;;;;;;;;;;5105304;28;20196;-66
2022/04/18 04:30:38;;;;;;;4.03;3.72;;;;;;;;;;5105238;28;20189;-67
2022/04/18 04:33:04;;;;;;;5.18;3.35;;;;;;;;;;5105690;28;20191;-67
2022/04/18 04:35:31;;;;;;;4.10;3.80;;;;;;;;;;5105521;28;20373;-67
2022/04/18 04:37:57;;;;;;;3.63;3.42;;;;;;;;;;5105245;28;20196;-66
2022/04/18 04:40:23;;;;;;;3.55;3.30;;;;;;;;;;5105297;28;20212;-66
2022/04/18 04:42:51;;;;;;;4.18;3.75;;;;;;;;;;5105216;28;20269;-66
2022/04/18 04:45:17;;;;;;;3.70;3.40;;;;;;;;;;5105090;28;20202;-67
2022/04/18 04:47:44;;;;;;;4.10;3.78;;;;;;;;;;5105063;28;20241;-66
2022/04/18 04:50:10;;;;;;;3.53;3.22;;;;;;;;;;5105115;28;20202;-66
2022/04/18 04:52:36;;;;;;;4.32;3.65;;;;;;;;;;5104967;28;20195;-66
2022/04/18 04:55:03;;;;;;;4.32;3.90;;;;;;;;;;5105138;28;20237;-66
2022/04/18 04:57:29;;;;;;;3.67;3.45;;;;;;;;;;5105160;28;20510;-66
2022/04/18 04:59:57;;;;;;;3.72;3.40;;;;;;;;;;5104894;28;20212;-66
2022/04/18 05:02:24;;;;;;;4.07;3.78;;;;;;;;;;5104779;28;20261;-67
2022/04/18 05:04:50;;;;;;;4.25;3.70;;;;;;;;;;5104734;28;20221;-66
2022/04/18 05:07:16;;;;;;;4.82;4.43;;;;;;;;;;5102616;28;20184;-66
2022/04/18 05:09:43;;;;;;;4.45;4.10;;;;;;;;;;5104804;28;20234;-67
2022/04/18 05:12:09;;;;;;;4.78;4.38;;;;;;;;;;5104586;28;20415;-67
2022/04/18 05:14:35;;;;;;;4.88;4.45;;;;;;;;;;5104656;28;20196;-67
2022/04/18 05:17:03;;;;;;;4.30;3.90;;;;;;;;;;5104799;28;20415;-67
2022/04/18 05:19:29;;;;;;;7.00;4.18;;;;;;;;;;5104766;28;20248;-67
2022/04/18 05:21:55;;;;;;;5.15;4.15;;;;;;;;;;5104609;28;20223;-67
2022/04/18 05:24:22;;;;;;;4.45;4.13;;;;;;;;;;5104615;28;20199;-68
2022/04/18 05:26:49;;;;;;;4.75;4.32;;;;;;;;;;5104652;28;20207;-68
2022/04/18 05:29:15;;;;;;;4.45;4.10;;;;;;;;;;5104246;28;20218;-69
2022/04/18 05:31:41;;;;;;;4.80;4.22;;;;;;;;;;5104462;28;20424;-69
2022/04/18 05:34:09;;;;;;;6.22;4.40;;;;;;;;;;5104337;28;20503;-69
2022/04/18 05:36:35;;;;;;;4.43;4.05;;;;;;;;;;5104335;28;20309;-69
2022/04/18 05:39:01;;;;;;;4.30;3.95;;;;;;;;;;5104640;28;20253;-69
2022/04/18 05:41:28;;;;;;;4.38;4.07;;;;;;;;;;5103932;28;20598;-69
2022/04/18 05:43:54;;;;;;;4.00;3.70;;;;;;;;;;5104252;28;20495;-69
2022/04/18 05:46:20;;;;;;;3.90;3.60;;;;;;;;;;5103978;28;20541;-69
2022/04/18 05:48:46;;;;;;;5.72;4.30;;;;;;;;;;5104140;28;20200;-69
2022/04/18 05:51:14;;;;;;;4.10;3.80;;;;;;;;;;5104096;28;20386;-69
2022/04/18 05:53:40;;;;;;;4.07;3.78;;;;;;;;;;5103900;28;20195;-69
2022/04/18 05:56:06;;;;;;;4.25;4.00;;;;;;;;;;5103563;28;20195;-69
2022/04/18 05:58:33;;;;;;;3.75;3.42;;;;;;;;;;5103968;28;20425;-69
2022/04/18 06:00:59;;;;;;;4.50;3.00;;;;;;;;;;5103726;28;20539;-69
2022/04/18 06:03:26;;;;;;;3.88;3.58;;;;;;;;;;5103879;28;20215;-69
2022/04/18 06:05:52;;;;;;;7.35;3.45;;;;;;;;;;5103529;28;20559;-69
2022/04/18 06:08:20;;;;;;;4.47;4.07;;;;;;;;;;5103396;28;20503;-69
2022/04/18 06:10:46;;;;;;;3.40;3.20;;;;;;;;;;5103471;28;20522;-69
2022/04/18 06:13:12;;;;;;;3.63;3.30;;;;;;;;;;5103640;28;20429;-69
2022/04/18 06:15:38;;;;;;;4.43;3.20;;;;;;;;;;5103315;28;20233;-69
2022/04/18 06:18:05;;;;;;;3.33;3.03;;;;;;;;;;5103099;28;20195;-69
2022/04/18 06:20:31;;;;;;;4.10;3.58;;;;;;;;;;5103313;28;20196;-69
2022/04/18 06:22:57;;;;;;;3.08;2.95;;;;;;;;;;5103283;28;20202;-69
2022/04/18 06:25:25;;;;;;;3.58;3.30;;;;;;;;;;5103196;28;20241;-69
2022/04/18 06:27:51;;;;;;;3.53;3.40;;;;;;;;;;5103410;28;20200;-69
2022/04/18 06:30:17;;;;;;;3.53;3.30;;;;;;;;;;5103585;28;20191;-69
2022/04/18 06:32:44;;;;;;;4.03;3.72;;;;;;;;;;5103608;28;20229;-69
2022/04/18 06:35:11;;;;;;;3.65;3.45;;;;;;;;;;5103404;28;20233;-69
2022/04/18 06:37:37;;;;;;;3.90;3.50;;;;;;;;;;5103207;28;20227;-69
2022/04/18 06:40:03;;;;;;;3.45;3.15;;;;;;;;;;5103185;28;20429;-69
2022/04/18 06:42:34;;;;;;;4.55;4.25;;;;;;;;;;5103130;28;20216;-69
2022/04/18 06:45:01;;;;;;;3.60;3.40;;;;;;;;;;5103263;28;20432;-69
2022/04/18 06:47:27;;;;;;;3.85;3.58;;;;;;;;;;5102802;28;20196;-69
2022/04/18 06:49:53;;;;;;;4.05;3.60;;;;;;;;;;5102936;28;20233;-69
2022/04/18 06:52:22;;;;;;;4.05;3.70;;;;;;;;;;5102824;28;20192;-69
2022/04/18 06:54:48;;;;;;;4.07;3.67;;;;;;;;;;5103177;28;20278;-69
2022/04/18 06:57:13;;;;;;;4.53;4.07;;;;;;;;;;5102638;28;20204;-69
2022/04/18 06:59:41;;;;;;;3.78;3.42;;;;;;;;;;5103064;28;20258;-69
2022/04/18 07:02:08;;;;;;;3.70;3.20;;;;;;;;;;5102749;28;20280;-69
2022/04/18 07:04:34;;;;;;;4.03;3.70;;;;;;;;;;5102701;28;20196;-69
2022/04/18 07:07:00;;;;;;;3.10;3.00;;;;;;;;;;5098984;28;20197;-69
2022/04/18 07:09:26;;;;;;;5.00;4.28;;;;;;;;;;5091905;28;20506;-69
2022/04/18 07:11:53;;;;;;;4.80;4.00;;;;;;;;;;5087767;28;20496;-69
2022/04/18 07:14:19;;;;;;;5.55;3.83;;;;;;;;;;5092355;28;20199;-69
2022/04/18 07:16:47;;;;;;;5.35;4.78;;;;;;;;;;5102328;28;20539;-69
2022/04/18 07:19:13;;;;;;;4.40;4.00;;;;;;;;;;5102402;28;20195;-69
2022/04/18 07:21:41;;;;;;;4.55;4.15;;;;;;;;;;5102434;28;20280;-69
2022/04/18 07:24:07;;;;;;;7.30;3.60;;;;;;;;;;5102714;28;20195;-69
2022/04/18 07:26:33;;;;;;;6.75;4.40;;;;;;;;;;5102233;28;20199;-69
2022/04/18 07:29:00;;;;;;;5.13;4.03;;;;;;;;;;5101947;28;20385;-69
2022/04/18 07:31:26;;;;;;;6.93;5.05;;;;;;;;;;5102402;28;20192;-69
2022/04/18 07:33:53;;;;;;;4.15;3.75;;;;;;;;;;5102249;28;20196;-68
2022/04/18 07:36:20;;;;;;;3.90;3.50;;;;;;;;;;5102769;28;20257;-69
2022/04/18 07:38:52;;;;;;;3.72;3.40;;;;;;;;;;5102528;28;20199;-69
2022/04/18 07:41:20;;;;;;;3.97;3.28;;;;;;;;;;5102612;28;20239;-68
2022/04/18 07:43:46;;;;;;;3.80;3.50;;;;;;;;;;5102268;28;20200;-68
2022/04/18 07:46:12;;;;;;;3.60;3.28;;;;;;;;;;5102043;28;20203;-68
2022/04/18 07:48:39;;;;;;;5.38;3.88;;;;;;;;;;5100608;28;20476;-68
2022/04/18 07:53:50;;;;;;;4.35;3.47;;;;;;;;;;5100199;28;20190;-67
2022/04/18 07:56:17;;;;;;;4.50;3.72;;;;;;;;;;5099981;28;20207;-67
2022/04/18 07:58:44;;;;;;;5.72;3.05;;;;;;;;;;5099989;28;20233;-67
2022/04/18 08:01:10;;;;;;;2.83;2.65;;;;;;;;;;5099768;28;20266;-67
2022/04/18 08:03:36;;;;;;;3.40;3.20;;;;;;;;;;5101323;28;20196;-67
2022/04/18 08:06:03;;;;;;;3.20;3.00;;;;;;;;;;5101475;28;20216;-67
2022/04/18 08:08:31;;;;;;;3.33;3.03;;;;;;;;;;5101443;28;20343;-67
2022/04/18 08:10:57;;;;;;;3.65;2.60;;;;;;;;;;5101348;28;20484;-67
2022/04/18 08:13:23;;;;;;;3.50;3.20;;;;;;;;;;5101353;28;20200;-67
2022/04/18 08:15:50;;;;;;;8.48;3.03;;;;;;;;;;5101305;28;20241;-67
2022/04/18 08:18:16;;;;;;;3.20;3.00;;;;;;;;;;5101357;28;20195;-67
2022/04/18 08:20:42;;;;;;;3.72;2.83;;;;;;;;;;5101402;28;20526;-67
2022/04/18 08:23:09;;;;;;;3.28;2.97;;;;;;;;;;5101505;28;20442;-67
2022/04/18 08:25:36;;;;;;;4.20;3.50;;;;;;;;;;5101612;28;20200;-68
2022/04/18 08:28:03;;;;;;;5.38;2.75;;;;;;;;;;5101040;28;20241;-68
2022/04/18 08:30:29;;;;;;;3.63;3.13;;;;;;;;;;5101558;28;20200;-68
2022/04/18 08:32:56;;;;;;;4.72;3.15;;;;;;;;;;5101451;28;20200;-68
2022/04/18 08:35:22;;;;;;;3.72;3.40;;;;;;;;;;5101321;28;20214;-67
2022/04/18 08:37:48;;;;;;;3.63;3.33;;;;;;;;;;5101176;28;20233;-67
2022/04/18 08:40:15;;;;;;;3.55;3.25;;;;;;;;;;5101487;28;20240;-67
2022/04/18 08:42:43;;;;;;;4.10;3.80;;;;;;;;;;5104769;28;20215;-67
2022/04/18 08:45:10;;;;;;;3.53;2.92;;;;;;;;;;5105131;28;20233;-67
2022/04/18 08:53:07;;;;;;;3.33;3.13;;;;;;;;;;5105037;28;20210;-67
2022/04/18 08:55:34;;;;;;;2.90;2.70;;;;;;;;;;5105143;28;20199;-67
2022/04/18 08:58:04;;;;;;;3.42;2.70;;;;;;;;;;5104777;28;20195;-67
2022/04/18 09:00:31;;;;;;;3.17;2.78;;;;;;;;;;5104927;28;20396;-67
2022/04/18 09:02:57;;;;;;;12.00;4.55;;;;;;;;;;5104945;28;20207;-67
2022/04/18 09:05:23;;;;;;;10.68;6.80;;;;;;;;;;5104924;28;20292;-67
2022/04/18 09:07:58;;;;;;;3.05;2.83;;;;;;;;;;5104739;28;20224;-67
2022/04/18 09:10:24;;;;;;;5.68;4.95;;;;;;;;;;5105175;28;20195;-67
2022/04/18 09:12:51;;;;;;;4.40;3.72;;;;;;;;;;5104771;28;20264;-67
2022/04/18 09:15:29;;;;;;;4.97;3.50;;;;;;;;;;5104790;28;20196;-67
2022/04/18 09:18:06;;;;;;;5.47;4.45;;;;;;;;;;5104488;28;20204;-67
2022/04/18 09:20:39;;;;;;;4.85;3.75;;;;;;;;;;5104849;28;20195;-67
2022/04/18 09:23:06;;;;;;;3.45;3.15;;;;;;;;;;5104473;28;20234;-68
2022/04/18 09:25:37;;;;;;;4.40;3.25;;;;;;;;;;5104795;28;20195;-67
2022/04/18 09:28:03;;;;;;;3.45;3.13;;;;;;;;;;5104424;28;20200;-67
2022/04/18 09:30:33;;;;;;;2.67;2.55;;;;;;;;;;5104502;28;20200;-67
2022/04/18 09:33:00;;;;;;;3.85;2.97;;;;;;;;;;5104675;28;20553;-67
2022/04/18 09:35:27;;;;;;;5.30;3.63;;;;;;;;;;5104228;28;20203;-67
2022/04/18 09:37:54;;;;;;;5.95;3.78;;;;;;;;;;5104257;28;20205;-68
2022/04/18 09:40:22;;;;;;;3.20;2.92;;;;;;;;;;5104205;28;20196;-68
2022/04/18 09:42:48;;;;;;;5.00;3.85;;;;;;;;;;5104205;28;20215;-68
2022/04/18 09:45:14;;;;;;;4.32;3.28;;;;;;;;;;5104152;28;20211;-69
2022/04/18 09:47:43;;;;;;;3.78;3.22;;;;;;;;;;5104031;28;20241;-66
2022/04/18 09:50:58;;;;;;;2.88;2.67;;;;;;;;;;5104190;28;20399;-67
2022/04/18 09:53:04;;;;;;;5.40;3.83;;;;;;;;;;5103493;28;20287;-67
2022/04/18 09:55:30;;;;;;;3.33;3.00;;;;;;;;;;5103889;28;20194;-67
2022/04/18 09:58:01;;;;;;;3.15;2.85;;;;;;;;;;5104131;28;20204;-67
2022/04/18 10:00:27;;;;;;;3.17;2.90;;;;;;;;;;5103940;28;20218;-67
2022/04/18 10:02:55;;;;;;;3.42;3.17;;;;;;;;;;5103847;28;20245;-66
2022/04/18 10:05:21;;;;;;;3.30;2.97;;;;;;;;;;5103713;28;20551;-67
2022/04/18 10:07:48;;;;;;;5.82;3.10;;;;;;;;;;5103481;28;20199;-67
2022/04/18 10:10:15;;;;;;;3.72;3.40;;;;;;;;;;5103608;28;20241;-68
2022/04/18 10:12:41;;;;;;;3.00;2.80;;;;;;;;;;5103898;28;20200;-68
2022/04/18 10:15:08;;;;;;;2.92;2.72;;;;;;;;;;5103874;28;20234;-68
2022/04/18 10:17:38;;;;;;;4.60;2.65;;;;;;;;;;5103385;28;20196;-68
2022/04/18 10:20:15;;;;;;;2.70;2.60;;;;;;;;;;5103506;28;20496;-68
2022/04/18 10:22:52;;;;;;;4.63;3.30;;;;;;;;;;5103380;28;20423;-68
2022/04/18 10:25:26;;;;;;;3.10;2.85;;;;;;;;;;5103865;28;20245;-68
2022/04/18 10:28:10;;;;;;;4.47;3.88;;;;;;;;;;5103182;28;20195;-68
2022/04/18 10:30:37;;;;;;;4.13;3.83;;;;;;;;;;5103875;28;20253;-68
2022/04/18 10:33:04;;;;;;;5.68;3.47;;;;;;;;;;5103401;28;20390;-68
2022/04/18 10:35:32;;;;;;;5.25;2.65;;;;;;;;;;5103212;28;20203;-68
2022/04/18 10:38:02;;;;;;;2.58;2.47;;;;;;;;;;5103276;28;20226;-68
2022/04/18 10:40:38;;;;;;;3.55;3.17;;;;;;;;;;5103424;28;20245;-68
2022/04/18 10:43:07;;;;;;;3.05;2.83;;;;;;;;;;5103325;28;20215;-68
2022/04/18 10:45:34;;;;;;;4.38;3.55;;;;;;;;;;5102994;28;20267;-68
2022/04/18 10:48:01;;;;;;;3.13;2.95;;;;;;;;;;5102874;28;20609;-68
2022/04/18 10:50:29;;;;;;;3.13;2.92;;;;;;;;;;5102850;28;20199;-68
2022/04/18 10:53:13;;;;;;;4.70;3.22;;;;;;;;;;5102843;28;20192;-68
2022/04/18 10:55:40;;;;;;;5.00;3.20;;;;;;;;;;5102877;28;20391;-68
2022/04/18 10:58:10;;;;;;;4.85;2.85;;;;;;;;;;5102553;28;20221;-68
2022/04/18 11:00:47;;;;;;;3.03;2.58;;;;;;;;;;5102786;28;20204;-68
2022/04/18 11:03:13;;;;;;;4.03;2.88;;;;;;;;;;5101934;28;20407;-59
2022/04/18 11:05:40;;;;;;;3.10;2.90;;;;;;;;;;5102368;28;20219;-59
2022/04/18 11:08:22;;;;;;;2.90;2.70;;;;;;;;;;5101639;28;20559;-59
2022/04/18 11:10:48;;;;;;;2.60;2.42;;;;;;;;;;5102603;28;20195;-58
2022/04/18 11:13:15;;;;;;;2.72;2.53;;;;;;;;;;5102569;28;20229;-59
2022/04/18 11:15:41;;;;;;;3.10;2.40;;;;;;;;;;5102740;28;20392;-57
2022/04/18 11:18:09;;;;;;;3.03;2.83;;;;;;;;;;5095010;28;20444;-59
2022/04/18 11:20:36;;;;;;;2.85;2.60;;;;;;;;;;5082040;28;20219;-59
2022/04/18 11:23:19;;;;;;;3.80;2.70;;;;;;;;;;5081552;28;20223;-59
2022/04/18 11:25:49;;;;;;;3.22;3.03;;;;;;;;;;5080682;28;20188;-58
2022/04/18 11:28:16;;;;;;;4.45;2.85;;;;;;;;;;5081506;28;20625;-58
2022/04/18 11:30:43;;;;;;;3.35;3.05;;;;;;;;;;5082145;28;20234;-59
2022/04/18 11:33:09;;;;;;;2.78;2.45;;;;;;;;;;5082135;28;20193;-59
2022/04/18 11:35:35;;;;;;;2.95;2.80;;;;;;;;;;5082135;28;20197;-59
2022/04/18 11:38:06;;;;;;;2.88;2.67;;;;;;;;;;5082064;28;20242;-59
2022/04/18 11:40:38;;;;;;;3.28;2.97;;;;;;;;;;5082242;28;20234;-59
2022/04/18 11:43:10;;;;;;;3.70;2.78;;;;;;;;;;5081997;28;20220;-58
2022/04/18 11:45:36;;;;;;;2.72;2.58;;;;;;;;;;5082083;28;20188;-59
2022/04/18 11:48:04;;;;;;;3.55;3.25;;;;;;;;;;5081701;28;20200;-59
2022/04/18 11:50:32;;;;;;;3.17;2.97;;;;;;;;;;5081837;28;20203;-59
2022/04/18 11:53:02;;;;;;;3.58;2.85;;;;;;;;;;5082012;28;20200;-59
2022/04/18 11:55:29;;;;;;;2.55;2.45;;;;;;;;;;5081964;28;20264;-59
2022/04/18 11:57:57;;;;;;;2.83;2.72;;;;;;;;;;5081760;28;20271;-59
2022/04/18 12:08:32;;;;;;;4.35;2.97;;;;;;;;;;5081747;28;20192;-59
2022/04/18 12:10:58;;;;;;;3.17;2.88;;;;;;;;;;5081768;28;20204;-58
2022/04/18 12:13:26;;;;;;;2.90;2.70;;;;;;;;;;5081949;28;20207;-58
2022/04/18 12:15:52;;;;;;;2.72;2.60;;;;;;;;;;5084240;28;20218;-60
2022/04/18 12:18:19;;;;;;;2.60;2.50;;;;;;;;;;5085385;28;20200;-59
2022/04/18 12:20:46;;;;;;;2.28;2.17;;;;;;;;;;5085476;28;20242;-59
2022/04/18 12:23:16;;;;;;;2.47;2.38;;;;;;;;;;5085208;28;20244;-59
2022/04/18 12:25:43;;;;;;;2.88;2.67;;;;;;;;;;5085241;28;20197;-60
2022/04/18 12:28:10;;;;;;;3.15;2.92;;;;;;;;;;5085227;28;20436;-60
2022/04/18 12:30:37;;;;;;;2.40;2.20;;;;;;;;;;5085356;28;20197;-59
2022/04/18 12:33:11;;;;;;;3.08;2.60;;;;;;;;;;5085257;28;20192;-59
2022/04/18 12:35:38;;;;;;;2.70;2.60;;;;;;;;;;5085076;28;20219;-59
2022/04/18 12:38:05;;;;;;;2.58;2.38;;;;;;;;;;5084800;28;20267;-59
2022/04/18 12:40:38;;;;;;;2.20;2.10;;;;;;;;;;5085314;28;20200;-59
2022/04/18 12:43:05;;;;;;;2.45;2.28;;;;;;;;;;5085001;28;20246;-57
2022/04/18 12:45:42;;;;;;;2.28;2.17;;;;;;;;;;5085075;28;20204;-57
2022/04/18 12:48:08;;;;;;;3.03;2.60;;;;;;;;;;5085091;28;20196;-58
2022/04/18 12:50:35;;;;;;;2.40;2.22;;;;;;;;;;5084915;28;20196;-58
2022/04/18 12:53:01;;;;;;;2.95;2.47;;;;;;;;;;5084950;28;20197;-58
2022/04/18 12:55:29;;;;;;;2.88;2.28;;;;;;;;;;5084836;28;20196;-57
2022/04/18 12:57:55;;;;;;;2.55;2.35;;;;;;;;;;5084704;28;20196;-58
2022/04/18 13:00:22;;;;;;;2.60;2.50;;;;;;;;;;5084590;28;20204;-58
2022/04/18 13:02:59;;;;;;;2.72;2.53;;;;;;;;;;5084567;28;20224;-58
2022/04/18 13:05:26;;;;;;;2.33;2.22;;;;;;;;;;5084881;28;20252;-60
2022/04/18 13:07:56;;;;;;;2.30;2.20;;;;;;;;;;5084598;28;20204;-58
2022/04/18 13:10:26;;;;;;;2.67;2.17;;;;;;;;;;5084569;28;20495;-58
2022/04/18 13:12:58;;;;;;;2.75;2.55;;;;;;;;;;5084597;28;20247;-57
2022/04/18 13:15:25;;;;;;;2.58;2.47;;;;;;;;;;5084367;28;20204;-56
2022/04/18 13:18:01;;;;;;;3.30;2.20;;;;;;;;;;5084014;28;20460;-58
2022/04/18 13:20:28;;;;;;;2.40;2.30;;;;;;;;;;5084483;28;20527;-58
2022/04/18 13:22:54;;;;;;;2.03;1.92;;;;;;;;;;5084424;28;20254;-58
2022/04/18 13:25:20;;;;;;;2.67;1.83;;;;;;;;;;5084335;28;20196;-57
2022/04/18 13:27:47;;;;;;;4.85;2.33;;;;;;;;;;5083153;28;20204;-58
2022/04/18 13:30:13;;;;;;;2.78;2.20;;;;;;;;;;5084012;28;20203;-58
2022/04/18 13:32:40;;;;;;;3.10;2.30;;;;;;;;;;5084027;28;20196;-58
2022/04/18 13:35:08;;;;;;;2.58;2.38;;;;;;;;;;5084075;28;20204;-58
2022/04/18 13:37:34;;;;;;;1.95;1.85;;;;;;;;;;5083694;28;20196;-57
2022/04/18 13:40:00;;;;;;;2.20;2.03;;;;;;;;;;5083957;28;20436;-57
2022/04/18 13:42:27;;;;;;;3.00;1.85;;;;;;;;;;5083759;28;20518;-57
2022/04/18 13:44:53;;;;;;;3.22;2.15;;;;;;;;;;5083391;28;20227;-57
2022/04/18 13:47:19;;;;;;;3.22;2.17;;;;;;;;;;5083602;28;20415;-58
2022/04/18 13:49:45;;;;;;;2.50;2.30;;;;;;;;;;5083819;28;20196;-58
2022/04/18 13:52:13;;;;;;;3.63;2.03;;;;;;;;;;5083806;28;20329;-58
2022/04/18 13:54:40;;;;;;;3.25;2.30;;;;;;;;;;5083607;28;20200;-57
2022/04/18 13:57:07;;;;;;;1.67;1.65;;;;;;;;;;5083299;28;20542;-58
2022/04/18 13:59:33;;;;;;;2.22;2.13;;;;;;;;;;5083248;28;20276;-58
2022/04/18 14:01:59;;;;;;;2.85;1.70;;;;;;;;;;5083440;28;20204;-57
2022/04/18 14:04:26;;;;;;;1.90;1.70;;;;;;;;;;5083514;28;20223;-58
2022/04/18 14:06:52;;;;;;;2.53;2.25;;;;;;;;;;5083190;28;20442;-57
2022/04/18 14:09:20;;;;;;;2.03;1.92;;;;;;;;;;5083666;28;20197;-58
2022/04/18 14:11:46;;;;;;;1.90;1.88;;;;;;;;;;5083066;28;20249;-58
2022/04/18 14:20:20;;;;;;;2.03;1.85;;;;;;;;;;5083316;28;20205;-56
2022/04/18 14:22:29;;;;;;;2.53;2.10;;;;;;;;;;5082967;28;20226;-57
2022/04/18 14:24:57;;;;;;;4.47;1.90;;;;;;;;;;5083136;28;20220;-58
2022/04/18 14:27:23;;;;;;;3.22;2.05;;;;;;;;;;5082846;28;20196;-58
2022/04/18 14:29:49;;;;;;;2.47;2.28;;;;;;;;;;5082990;28;20425;-57
2022/04/18 14:32:15;;;;;;;2.28;2.05;;;;;;;;;;5082905;28;20445;-58
2022/04/18 14:34:42;;;;;;;2.28;2.15;;;;;;;;;;5082676;28;20239;-58
2022/04/18 14:37:08;;;;;;;3.22;1.92;;;;;;;;;;5082638;28;20264;-58
2022/04/18 14:39:34;;;;;;;2.42;2.22;;;;;;;;;;5082838;28;20196;-57
2022/04/18 14:42:02;;;;;;;1.83;1.73;;;;;;;;;;5082753;28;20241;-58
2022/04/18 14:44:28;;;;;;;2.40;2.20;;;;;;;;;;5082570;28;20285;-58
2022/04/18 14:46:54;;;;;;;1.85;1.80;;;;;;;;;;5082411;28;20250;-58
2022/04/18 14:49:20;;;;;;;2.08;1.90;;;;;;;;;;5082512;28;20196;-58
2022/04/18 14:51:47;;;;;;;2.28;2.17;;;;;;;;;;5082669;28;20200;-58
2022/04/18 14:54:13;;;;;;;5.07;1.85;;;;;;;;;;5082405;28;20192;-56
2022/04/18 14:56:39;;;;;;;2.03;1.92;;;;;;;;;;5082096;28;20201;-58
2022/04/18 14:59:07;;;;;;;2.22;1.98;;;;;;;;;;5082524;28;20294;-57
2022/04/18 15:01:33;;;;;;;4.72;1.88;;;;;;;;;;5082415;28;20208;-57
2022/04/18 15:03:59;;;;;;;2.42;1.90;;;;;;;;;;5082105;28;20583;-57
2022/04/18 15:06:25;;;;;;;3.03;2.10;;;;;;;;;;5081990;28;20262;-56
2022/04/18 15:08:52;;;;;;;4.65;2.08;;;;;;;;;;5082291;28;20210;-57
2022/04/18 15:11:19;;;;;;;4.38;1.75;;;;;;;;;;5082297;28;20243;-57
2022/04/18 15:13:45;;;;;;;3.22;1.83;;;;;;;;;;5082224;28;20216;-57